Time;durP1;ratioP1;P1;durP2;ratioP2;P2;SDS_P1;SDS_P2;PMS_P1;PMS_P2;Temp;Humidity;BMP_temperature;BMP_pressure;BME280_temperature;BME280_humidity;BME280_pressure;Samples;Min_cycle;Max_cycle;Signal;HPM_P1;HPM_P2
2023/07/31 00:01:49;;;;;;;10.20;5.87;;;;;;;19.45;60.29;98817.91;4938665;29;20110;-90
2023/07/31 00:04:15;;;;;;;14.67;6.40;;;;;;;19.46;60.03;98810.38;4954178;28;20044;-92
2023/07/31 00:06:41;;;;;;;17.43;7.17;;;;;;;19.63;58.97;98820.00;4938678;29;20071;-91
2023/07/31 00:09:07;;;;;;;17.90;7.17;;;;;;;19.41;59.96;98821.84;4954209;28;20109;-93
2023/07/31 00:11:33;;;;;;;18.30;7.57;;;;;;;19.24;61.01;98829.63;4937941;29;20035;-91
2023/07/31 00:13:59;;;;;;;15.90;8.13;;;;;;;19.12;60.94;98829.13;4937763;29;20046;-90
2023/07/31 00:16:25;;;;;;;22.17;8.17;;;;;;;18.83;61.90;98823.31;4922060;29;20036;-91
2023/07/31 00:18:51;;;;;;;23.53;7.40;;;;;;;18.95;62.31;98847.97;4969430;28;20708;-90
2023/07/31 00:21:17;;;;;;;22.93;8.40;;;;;;;18.63;63.15;98814.34;4968795;28;20039;-89
2023/07/31 00:23:43;;;;;;;28.37;7.90;;;;;;;18.85;62.86;98847.84;4936490;29;20142;-90
2023/07/31 00:26:09;;;;;;;17.30;8.33;;;;;;;18.61;62.61;98827.81;4937091;29;20513;-89
2023/07/31 00:28:35;;;;;;;16.70;8.40;;;;;;;18.49;63.22;98825.28;4937110;29;20502;-88
2023/07/31 00:31:02;;;;;;;29.73;8.30;;;;;;;18.63;63.63;98846.78;4936829;29;20505;-89
2023/07/31 00:33:28;;;;;;;28.25;8.20;;;;;;;18.48;63.75;98823.69;4937135;29;20141;-88
2023/07/31 00:35:55;;;;;;;16.83;7.45;;;;;;;18.59;63.95;98829.34;4952980;28;20555;-89
2023/07/31 00:38:21;;;;;;;30.63;8.47;;;;;;;18.47;64.02;98828.41;4938876;29;20043;-89
2023/07/31 00:40:47;;;;;;;21.63;8.23;;;;;;;18.24;64.91;98831.28;4939824;29;20057;-89
2023/07/31 00:43:13;;;;;;;28.05;8.60;;;;;;;18.09;64.85;98829.53;4956396;29;20031;-89
2023/07/31 00:45:40;;;;;;;32.63;9.13;;;;;;;17.88;65.81;98827.28;4972212;28;20405;-88
2023/07/31 00:48:06;;;;;;;27.33;9.05;;;;;;;17.92;65.89;98816.28;4957639;29;20035;-89
2023/07/31 00:50:35;;;;;;;20.88;8.70;;;;;;;17.76;66.60;98813.66;4972471;28;20496;-89
2023/07/31 00:53:01;;;;;;;17.58;8.05;;;;;;;17.81;67.27;98849.28;4952853;28;20064;-90
2023/07/31 00:55:27;;;;;;;23.67;9.00;;;;;;;17.44;67.64;98791.06;4953191;29;20044;-89
2023/07/31 00:57:55;;;;;;;16.33;8.00;;;;;;;17.84;66.85;98831.94;4953043;29;20050;-90
2023/07/31 01:00:21;;;;;;;44.92;7.50;;;;;;;17.82;66.13;98839.84;4952789;29;20059;-89
2023/07/31 01:02:50;;;;;;;22.13;7.22;;;;;;;17.75;66.88;98818.38;4936621;29;20039;-87
2023/07/31 01:05:25;;;;;;;33.38;7.95;;;;;;;17.74;66.15;98810.44;4937506;29;20047;-90
2023/07/31 01:08:04;;;;;;;24.77;7.57;;;;;;;18.02;66.07;98810.88;4937132;29;20047;-88
2023/07/31 01:10:45;;;;;;;19.33;7.32;;;;;;;18.55;65.22;98840.38;4953436;29;20133;-89
2023/07/31 01:13:12;;;;;;;17.13;6.55;;;;;;;18.91;63.47;98815.88;4937451;29;20047;-89
2023/07/31 01:15:38;;;;;;;20.02;6.90;;;;;;;19.12;61.79;98790.34;4953358;29;20039;-89
2023/07/31 01:18:04;;;;;;;16.90;6.68;;;;;;;19.54;61.44;98845.31;4954082;29;20126;-90
2023/07/31 01:20:31;;;;;;;14.53;6.97;;;;;;;19.38;61.42;98834.50;4937705;29;20115;-90
2023/07/31 01:23:22;;;;;;;23.80;7.18;;;;;;;18.77;62.50;98844.19;4906059;29;20525;-90
2023/07/31 01:26:08;;;;;;;16.27;7.20;;;;;;;19.14;62.50;98838.66;4936336;29;20731;-90
2023/07/31 01:28:41;;;;;;;16.85;6.55;;;;;;;19.56;60.68;98837.41;4937252;29;20416;-89
2023/07/31 01:31:10;;;;;;;16.40;6.93;;;;;;;19.77;59.67;98822.94;4936702;29;20051;-90
2023/07/31 01:33:37;;;;;;;16.58;6.20;;;;;;;20.17;58.62;98823.94;4937134;29;20055;-90
2023/07/31 01:36:04;;;;;;;14.10;6.50;;;;;;;19.91;58.51;98808.34;4921020;29;20063;-91
2023/07/31 01:38:30;;;;;;;12.85;6.25;;;;;;;19.66;58.71;98797.09;4920338;29;20535;-90
2023/07/31 01:40:56;;;;;;;19.67;6.47;;;;;;;19.55;59.27;98796.19;4920512;29;20044;-90
2023/07/31 01:43:25;;;;;;;19.67;6.85;;;;;;;19.47;59.23;98823.88;4935429;29;20055;-89
2023/07/31 01:45:51;;;;;;;30.77;7.07;;;;;;;19.39;59.92;98821.44;4935406;29;20409;-90
2023/07/31 01:48:17;;;;;;;19.48;7.13;;;;;;;19.34;59.77;98805.97;4935239;29;20091;-90
2023/07/31 01:50:43;;;;;;;16.10;7.13;;;;;;;19.07;60.78;98818.38;4952626;29;20043;-90
2023/07/31 01:53:09;;;;;;;16.40;7.07;;;;;;;19.19;60.85;98810.56;4956741;29;20051;-90
2023/07/31 01:55:36;;;;;;;15.07;6.83;;;;;;;19.07;60.70;98805.31;4955859;29;20039;-89
2023/07/31 01:58:02;;;;;;;16.70;6.85;;;;;;;18.85;61.41;98820.16;4939148;29;20046;-90
2023/07/31 02:00:28;;;;;;;20.17;6.40;;;;;;;18.81;62.23;98835.91;4940718;29;20047;-91
2023/07/31 02:02:54;;;;;;;16.57;6.03;;;;;;;18.60;62.36;98822.63;4956962;28;20047;-90
2023/07/31 02:05:20;;;;;;;19.70;6.87;;;;;;;18.34;63.33;98815.22;4924224;29;20484;-91
2023/07/31 02:07:46;;;;;;;15.90;7.83;;;;;;;18.27;63.55;98819.47;4923792;29;20066;-90
2023/07/31 02:10:12;;;;;;;12.80;5.90;;;;;;;18.34;64.64;98835.38;4939407;29;20531;-90
2023/07/31 02:12:38;;;;;;;28.45;6.72;;;;;;;18.24;63.82;98827.72;4923264;29;20047;-90
2023/07/31 02:15:04;;;;;;;18.77;6.93;;;;;;;18.17;65.01;98824.88;4924161;29;20049;-90
2023/07/31 02:17:31;;;;;;;15.57;6.10;;;;;;;18.28;65.22;98828.59;4940060;29;20047;-90
2023/07/31 02:19:57;;;;;;;17.67;6.37;;;;;;;18.39;64.40;98812.91;4955656;29;20043;-90
2023/07/31 02:22:24;;;;;;;21.05;5.95;;;;;;;18.88;62.50;98808.31;4939952;29;20085;-90
2023/07/31 02:24:50;;;;;;;22.07;5.93;;;;;;;19.24;61.37;98837.16;4956366;29;20050;-90
2023/07/31 02:27:16;;;;;;;27.33;8.67;;;;;;;19.04;60.75;98827.44;4924244;29;20039;-90
2023/07/31 02:29:42;;;;;;;15.47;8.17;;;;;;;18.83;62.26;98816.97;4955779;29;20035;-90
2023/07/31 02:32:08;;;;;;;25.20;13.43;;;;;;;18.73;62.47;98807.38;4924305;29;20505;-91
2023/07/31 02:34:35;;;;;;;;;;;;;;;18.85;63.43;98840.34;4972655;28;20035;-90
2023/07/31 02:37:01;;;;;;;26.55;10.20;;;;;;;18.46;63.57;98818.53;4940555;29;19933;-90
2023/07/31 02:39:27;;;;;;;22.20;10.10;;;;;;;18.33;64.58;98816.38;4955994;29;20058;-89
2023/07/31 02:41:53;;;;;;;25.23;10.52;;;;;;;18.35;64.48;98827.88;4955181;29;20047;-90
2023/07/31 02:44:20;;;;;;;17.63;7.53;;;;;;;18.23;64.95;98826.16;4955062;29;20054;-90
2023/07/31 02:46:46;;;;;;;14.80;8.23;;;;;;;18.34;64.88;98834.56;4939457;29;20173;-89
2023/07/31 02:49:18;;;;;;;14.07;7.10;;;;;;;18.24;65.21;98824.97;4955135;29;20552;-89
2023/07/31 02:51:44;;;;;;;16.65;6.90;;;;;;;18.52;64.47;98847.47;4907611;29;20146;-90
2023/07/31 02:54:10;;;;;;;19.98;7.20;;;;;;;18.48;65.09;98851.38;4954935;29;20061;-90
2023/07/31 02:56:36;;;;;;;15.27;7.25;;;;;;;18.48;65.06;98851.38;4956083;29;20043;-89
2023/07/31 02:59:02;;;;;;;14.20;6.97;;;;;;;18.32;65.73;98834.97;4955246;28;20051;-89
2023/07/31 03:01:28;;;;;;;17.13;6.25;;;;;;;18.36;65.63;98819.19;4938612;29;20087;-90
2023/07/31 03:03:54;;;;;;;18.57;6.53;;;;;;;18.63;64.38;98814.34;4955993;29;20043;-92
2023/07/31 03:06:20;;;;;;;13.20;5.47;;;;;;;18.95;63.29;98836.88;4955373;29;20127;-89
2023/07/31 03:08:47;;;;;;;17.05;5.70;;;;;;;18.86;63.91;98832.81;4955903;29;20074;-90
2023/07/31 03:11:14;;;;;;;13.48;6.03;;;;;;;18.73;64.88;98829.53;4955505;29;20126;-91
2023/07/31 03:13:41;;;;;;;;;;;;;;;18.84;65.80;98851.78;4957504;29;20516;-90
2023/07/31 03:16:07;;;;;;;17.52;6.20;;;;;;;18.68;66.07;98835.38;4958166;29;19922;-90
2023/07/31 03:18:33;;;;;;;11.53;5.60;;;;;;;18.51;66.49;98812.66;4955672;29;20043;-89
2023/07/31 03:20:59;;;;;;;11.90;5.70;;;;;;;18.39;67.16;98810.16;4960845;29;20306;-85
2023/07/31 03:23:25;;;;;;;12.13;5.97;;;;;;;18.62;66.92;98823.84;4963215;29;20043;-90
2023/07/31 03:26:03;;;;;;;17.08;5.30;;;;;;;19.01;66.24;98840.91;4926373;29;20039;-92
2023/07/31 03:28:29;;;;;;;21.13;5.85;;;;;;;18.98;64.64;98783.50;4958523;29;20039;-93
2023/07/31 03:30:56;;;;;;;26.60;5.88;;;;;;;18.98;64.64;98796.56;4942373;29;20055;-90
2023/07/31 03:33:22;;;;;;;17.47;5.93;;;;;;;19.24;63.55;98801.13;4941957;29;20158;-92
2023/07/31 03:35:50;;;;;;;22.02;6.28;;;;;;;19.33;63.55;98815.44;4943641;29;20043;-90
2023/07/31 03:38:16;;;;;;;18.63;5.78;;;;;;;19.27;63.44;98818.94;4958804;29;20043;-89
2023/07/31 03:40:42;;;;;;;23.60;6.17;;;;;;;19.37;64.07;98818.22;4960484;29;20043;-90
2023/07/31 03:43:08;;;;;;;21.60;5.53;;;;;;;19.95;62.29;98842.44;4946337;29;20038;-91
2023/07/31 03:45:34;;;;;;;12.57;5.40;;;;;;;20.08;61.78;98823.50;4926898;29;20050;-89
2023/07/31 03:48:01;;;;;;;17.98;6.47;;;;;;;20.21;61.34;98835.84;4958416;28;20047;-92
2023/07/31 03:50:27;;;;;;;18.25;6.35;;;;;;;19.88;61.61;98795.25;4930291;29;20047;-90
2023/07/31 03:52:53;;;;;;;8.50;5.53;;;;;;;19.55;62.11;98785.13;4943349;29;20051;-90
2023/07/31 03:55:21;;;;;;;21.30;6.03;;;;;;;19.92;62.92;98844.00;4927064;29;20035;-91
2023/07/31 03:57:48;;;;;;;17.55;6.13;;;;;;;19.87;63.09;98840.81;4896604;29;20048;-90
2023/07/31 04:00:15;;;;;;;27.25;6.15;;;;;;;19.93;63.40;98851.16;4946408;29;20075;-90
2023/07/31 04:02:41;;;;;;;;;;;;;;;19.93;63.12;98845.63;4897550;29;20047;-91
2023/07/31 04:05:09;;;;;;;18.25;5.88;;;;;;;20.02;62.70;98853.56;4962613;29;19945;-90
2023/07/31 04:07:37;;;;;;;20.33;6.07;;;;;;;20.04;61.90;98804.06;4931350;29;20047;-89
2023/07/31 04:10:04;;;;;;;14.38;5.07;;;;;;;20.17;61.77;98835.81;4927274;29;20047;-94
2023/07/31 04:12:30;;;;;;;14.00;5.00;;;;;;;20.27;58.67;98847.38;4960150;28;20043;-91
2023/07/31 04:14:56;;;;;;;15.07;5.07;;;;;;;20.27;59.22;98825.16;4951605;29;20043;-90
2023/07/31 04:17:23;;;;;;;13.60;4.80;;;;;;;20.37;60.27;98810.53;4983307;28;20580;-91
2023/07/31 04:19:49;;;;;;;;;;;;;;;20.92;58.80;98849.19;4935565;29;20089;-89
2023/07/31 04:22:15;;;;;;;14.93;4.60;;;;;;;20.92;58.30;98851.97;4968495;29;19922;-91
2023/07/31 04:24:41;;;;;;;8.55;4.53;;;;;;;20.78;57.99;98799.16;4950543;29;20497;-91
2023/07/31 04:27:07;;;;;;;10.50;4.67;;;;;;;21.26;57.27;98830.19;4935419;29;20050;-92
2023/07/31 04:29:34;;;;;;;9.90;4.28;;;;;;;21.55;55.72;98833.78;4951023;29;20282;-89
2023/07/31 04:32:00;;;;;;;12.98;4.60;;;;;;;21.33;55.55;98812.72;4965150;28;20043;-89
2023/07/31 04:34:26;;;;;;;9.43;4.40;;;;;;;21.56;55.29;98854.84;4936290;29;20106;-88
2023/07/31 04:36:52;;;;;;;22.35;4.53;;;;;;;21.54;55.74;98834.97;4965758;29;20351;-86
2023/07/31 04:39:18;;;;;;;11.00;4.60;;;;;;;21.55;55.43;98849.66;4941930;29;20054;-86
2023/07/31 04:41:44;;;;;;;22.93;4.90;;;;;;;21.25;54.81;98842.50;4956785;28;20051;-85
2023/07/31 04:44:11;;;;;;;13.33;4.47;;;;;;;21.35;56.43;98838.94;4955136;29;20540;-87
2023/07/31 04:46:40;;;;;;;9.48;4.32;;;;;;;21.54;55.24;98862.00;4958329;29;20452;-86
2023/07/31 04:49:08;;;;;;;8.38;4.70;;;;;;;21.43;55.85;98841.75;4942235;29;20444;-86
2023/07/31 04:51:34;;;;;;;12.07;5.30;;;;;;;21.52;54.46;98851.28;4956732;29;20088;-86
2023/07/31 04:53:59;;;;;;;18.67;5.37;;;;;;;21.62;55.66;98848.88;4923948;29;20047;-86
2023/07/31 04:56:25;;;;;;;15.53;5.60;;;;;;;21.93;55.22;98850.03;4958403;29;20130;-88
2023/07/31 04:58:51;;;;;;;9.63;4.77;;;;;;;22.25;54.35;98849.97;4942404;29;20509;-88
2023/07/31 05:01:17;;;;;;;10.93;5.03;;;;;;;22.22;52.21;98848.00;4959789;29;20178;-88
2023/07/31 05:03:43;;;;;;;8.67;4.93;;;;;;;22.28;52.69;98854.72;4945122;29;20417;-86
2023/07/31 05:06:09;;;;;;;10.83;4.80;;;;;;;22.41;53.45;98863.44;4943420;29;20039;-86
2023/07/31 05:08:35;;;;;;;8.82;3.83;;;;;;;22.75;52.13;98861.72;4962506;29;20106;-86
2023/07/31 05:11:02;;;;;;;10.82;4.05;;;;;;;22.85;50.77;98860.06;4962126;29;20043;-86
2023/07/31 05:13:28;;;;;;;13.60;4.20;;;;;;;22.73;51.08;98839.00;4959486;28;20047;-86
2023/07/31 05:15:54;;;;;;;9.15;3.95;;;;;;;22.73;51.26;98832.66;4959548;28;20180;-91
2023/07/31 05:18:20;;;;;;;8.77;3.53;;;;;;;22.90;48.14;98850.47;4959730;28;20078;-86
2023/07/31 05:20:46;;;;;;;7.18;3.90;;;;;;;23.06;50.28;98869.53;4957590;28;20047;-87
2023/07/31 05:23:11;;;;;;;7.90;3.97;;;;;;;23.05;50.89;98868.72;4942083;29;20078;-87
2023/07/31 05:25:37;;;;;;;9.47;3.60;;;;;;;23.11;50.05;98847.59;4941973;29;20298;-88
2023/07/31 05:28:03;;;;;;;6.13;3.47;;;;;;;23.12;48.71;98862.31;4926585;29;20342;-84
2023/07/31 05:30:30;;;;;;;13.63;4.30;;;;;;;23.09;49.17;98865.91;4958028;29;20294;-91
2023/07/31 05:32:56;;;;;;;9.82;3.95;;;;;;;22.92;50.60;98836.94;4958421;28;20047;-87
2023/07/31 05:35:23;;;;;;;12.43;3.80;;;;;;;23.20;50.53;98841.53;4958951;29;20047;-87
2023/07/31 05:37:48;;;;;;;9.48;3.53;;;;;;;23.35;49.87;98848.59;4958106;29;20067;-87
2023/07/31 05:40:15;;;;;;;8.98;3.63;;;;;;;23.49;49.33;98858.06;4945817;29;20043;-87
2023/07/31 05:42:41;;;;;;;;;;;;;;;23.56;48.83;98866.38;4911363;29;20043;-88
2023/07/31 05:45:07;;;;;;;7.15;3.63;;;;;;;23.75;48.07;98865.81;4957811;28;20004;-85
2023/07/31 05:47:34;;;;;;;11.02;3.35;;;;;;;23.47;46.88;98855.66;4956647;28;20047;-86
2023/07/31 05:50:00;;;;;;;8.32;3.17;;;;;;;23.55;45.00;98862.00;4939101;29;20054;-87
2023/07/31 05:52:26;;;;;;;16.35;4.00;;;;;;;23.49;46.89;98858.84;4921753;29;20054;-87
2023/07/31 05:54:52;;;;;;;30.50;4.55;;;;;;;23.34;46.26;98855.38;4970140;28;20099;-87
2023/07/31 05:57:17;;;;;;;14.50;3.80;;;;;;;23.58;47.70;98861.97;4955181;29;20031;-86
2023/07/31 05:59:43;;;;;;;13.87;3.37;;;;;;;23.47;47.69;98858.44;4938935;29;20302;-85
2023/07/31 06:02:09;;;;;;;16.87;3.20;;;;;;;23.38;46.95;98852.56;4940151;29;20338;-85
2023/07/31 06:04:35;;;;;;;4.90;2.67;;;;;;;23.33;44.70;98859.38;4955993;29;20854;-85
2023/07/31 06:07:01;;;;;;;7.40;2.73;;;;;;;23.35;44.70;98848.59;4957486;28;20283;-86
2023/07/31 06:09:27;;;;;;;8.95;3.38;;;;;;;23.47;44.97;98866.81;4955581;29;20186;-86
2023/07/31 06:11:53;;;;;;;5.97;2.93;;;;;;;23.48;47.15;98859.25;4959769;29;20035;-85
2023/07/31 06:14:19;;;;;;;6.25;2.85;;;;;;;23.43;43.90;98871.66;4942693;29;20318;-88
2023/07/31 06:16:45;;;;;;;9.80;2.53;;;;;;;23.20;44.69;98861.06;4943620;29;20035;-87
2023/07/31 06:19:12;;;;;;;13.65;3.83;;;;;;;23.46;45.61;98870.81;4939307;29;20306;-88
2023/07/31 06:21:39;;;;;;;8.55;2.97;;;;;;;23.71;44.92;98883.78;4937889;29;20416;-85
2023/07/31 06:24:08;;;;;;;14.32;2.90;;;;;;;23.57;43.88;98860.34;4939632;29;20564;-86
2023/07/31 06:26:34;;;;;;;9.65;2.80;;;;;;;23.41;43.95;98852.53;4956930;29;20031;-85
2023/07/31 06:29:00;;;;;;;5.95;2.50;;;;;;;23.48;46.50;98870.41;4954134;29;20521;-85
2023/07/31 06:31:26;;;;;;;16.38;3.30;;;;;;;23.56;45.45;98869.94;4937452;29;20050;-85
2023/07/31 06:33:52;;;;;;;4.88;2.78;;;;;;;23.47;44.38;98858.44;4954561;28;20054;-85
2023/07/31 06:36:18;;;;;;;6.25;3.10;;;;;;;23.86;46.65;98869.28;4953386;29;20517;-85
2023/07/31 06:38:44;;;;;;;5.43;3.00;;;;;;;23.74;43.17;98864.25;4969504;28;20412;-85
2023/07/31 06:41:10;;;;;;;5.78;2.70;;;;;;;23.90;44.57;98867.25;4953675;29;20054;-84
2023/07/31 06:43:37;;;;;;;8.85;2.83;;;;;;;23.99;44.69;98860.41;4954972;29;20039;-84
2023/07/31 06:46:06;;;;;;;;;;;;;;;24.10;43.95;98881.41;4937923;29;20039;-85
2023/07/31 06:48:33;;;;;;;7.43;3.10;;;;;;;24.17;43.90;98877.75;4954671;29;19922;-86
2023/07/31 06:51:01;;;;;;;5.72;2.55;;;;;;;24.23;42.52;98883.69;4937377;29;20035;-85
2023/07/31 06:53:27;;;;;;;5.93;2.50;;;;;;;24.25;43.23;98873.69;4955223;29;20039;-84
2023/07/31 06:55:53;;;;;;;7.82;2.58;;;;;;;24.18;42.11;98859.03;4956357;29;20066;-87
2023/07/31 06:58:20;;;;;;;9.20;3.10;;;;;;;24.24;43.22;98879.69;4940260;29;20394;-86
2023/07/31 07:00:49;;;;;;;9.93;2.95;;;;;;;24.20;41.54;98873.34;4963947;29;20083;-94
2023/07/31 07:03:18;;;;;;;10.32;2.63;;;;;;;24.33;42.47;98846.47;4938367;29;20039;-93
2023/07/31 07:05:44;;;;;;;9.07;2.97;;;;;;;24.14;40.26;98853.47;4951937;29;20047;-91
2023/07/31 07:08:10;;;;;;;10.05;3.15;;;;;;;24.03;42.68;98859.16;4961992;28;20545;-88
2023/07/31 07:10:37;;;;;;;9.32;3.30;;;;;;;24.12;44.19;98839.91;4942081;29;20046;-91
2023/07/31 07:13:03;;;;;;;10.35;3.05;;;;;;;24.58;43.68;98871.34;4940694;29;20099;-88
2023/07/31 07:15:29;;;;;;;3.88;2.40;;;;;;;24.72;40.63;98871.16;4959818;29;20047;-90
2023/07/31 07:17:55;;;;;;;6.80;2.88;;;;;;;24.52;42.33;98859.81;4943755;29;20039;-91
2023/07/31 07:20:21;;;;;;;7.95;3.17;;;;;;;24.41;41.34;98831.25;4930120;29;20071;-89
2023/07/31 07:22:48;;;;;;;9.15;2.50;;;;;;;24.33;39.52;98855.63;4942029;29;20505;-89
2023/07/31 07:25:16;;;;;;;6.85;2.75;;;;;;;24.49;40.41;98869.03;4962214;28;20066;-91
2023/07/31 07:27:42;;;;;;;7.38;2.35;;;;;;;24.56;39.10;98876.53;4960721;29;20043;-88
2023/07/31 07:30:08;;;;;;;3.20;2.25;;;;;;;24.46;38.13;98883.06;4941962;29;20491;-87
2023/07/31 07:32:34;;;;;;;;;;;;;;;24.65;41.70;98882.44;4957116;29;20035;-87
2023/07/31 07:35:00;;;;;;;6.00;2.70;;;;;;;24.61;41.31;98876.88;4956662;29;19937;-87
2023/07/31 07:37:27;;;;;;;6.03;2.38;;;;;;;24.64;39.05;98874.47;4956256;28;20043;-87
2023/07/31 07:39:53;;;;;;;6.85;3.08;;;;;;;24.57;41.72;98862.19;4958699;28;20539;-90
2023/07/31 07:42:19;;;;;;;4.93;2.80;;;;;;;24.83;38.70;98887.78;4939892;29;20043;-86
2023/07/31 07:44:45;;;;;;;3.33;2.22;;;;;;;24.68;38.15;98873.22;4956920;28;20134;-86
2023/07/31 07:47:11;;;;;;;6.65;2.40;;;;;;;24.83;38.87;98879.38;4957700;28;20062;-87
2023/07/31 07:49:37;;;;;;;7.20;2.85;;;;;;;24.86;37.60;98886.94;4943306;29;20561;-87
2023/07/31 07:52:03;;;;;;;3.97;2.60;;;;;;;24.87;40.68;98870.94;4960875;29;20476;-89
2023/07/31 07:54:30;;;;;;;5.05;2.45;;;;;;;24.96;39.50;98891.59;4959673;29;20047;-88
2023/07/31 07:56:56;;;;;;;2.88;2.22;;;;;;;25.00;39.79;98875.56;4959315;29;20035;-87
2023/07/31 07:59:22;;;;;;;4.15;2.10;;;;;;;25.03;39.29;98876.72;4941487;29;20109;-85
2023/07/31 08:01:48;;;;;;;3.83;2.10;;;;;;;24.82;36.51;98869.44;4959545;28;20040;-86
2023/07/31 08:04:14;;;;;;;2.58;1.90;;;;;;;24.93;37.53;98880.47;4961278;29;20058;-86
2023/07/31 08:06:44;;;;;;;9.38;2.25;;;;;;;25.06;38.92;98887.84;4959346;29;20429;-87
2023/07/31 08:09:09;;;;;;;3.83;2.40;;;;;;;25.00;36.37;98886.75;4946616;29;20090;-86
2023/07/31 08:11:36;;;;;;;4.55;2.47;;;;;;;25.22;39.72;98892.84;4961488;29;20040;-86
2023/07/31 08:14:02;;;;;;;9.18;2.47;;;;;;;25.27;39.57;98884.00;4926157;29;20532;-85
2023/07/31 08:16:29;;;;;;;7.13;2.50;;;;;;;25.07;38.93;98846.72;4944252;29;20051;-87
2023/07/31 08:18:55;;;;;;;6.15;2.40;;;;;;;25.27;36.61;98884.00;4959656;29;20122;-87
2023/07/31 08:21:22;;;;;;;14.15;3.00;;;;;;;25.37;39.13;98893.44;4940539;29;20195;-88
2023/07/31 08:23:47;;;;;;;10.07;2.40;;;;;;;25.34;38.59;98871.91;4959462;29;20054;-86
2023/07/31 08:26:19;;;;;;;4.47;2.28;;;;;;;25.58;39.96;98891.50;4959618;29;20043;-86
2023/07/31 08:28:45;;;;;;;3.28;2.20;;;;;;;25.67;37.11;98881.34;4960599;28;20054;-86
2023/07/31 08:31:11;;;;;;;6.32;2.50;;;;;;;25.77;37.62;98897.19;4928687;29;20043;-86
2023/07/31 08:33:38;;;;;;;4.43;2.40;;;;;;;25.67;38.29;98889.75;4960037;28;20047;-87
2023/07/31 08:36:05;;;;;;;5.45;2.35;;;;;;;25.76;38.42;98886.38;4957351;28;20106;-87
2023/07/31 08:38:31;;;;;;;23.80;3.83;;;;;;;25.63;35.61;98868.63;4958548;28;20058;-88
2023/07/31 08:40:57;;;;;;;6.28;2.75;;;;;;;25.70;37.20;98879.72;4941601;29;20126;-86
2023/07/31 08:43:27;;;;;;;;;;;;;;;25.88;38.36;98896.22;4943160;29;20050;-87
2023/07/31 08:45:56;;;;;;;3.67;2.50;;;;;;;25.85;38.02;98881.06;4961144;29;20343;-88
2023/07/31 08:48:23;;;;;;;3.97;2.50;;;;;;;25.83;36.25;98894.72;4977630;28;20047;-88
2023/07/31 08:50:53;;;;;;;7.35;2.53;;;;;;;25.68;35.79;98880.13;4941145;29;20039;-87
2023/07/31 08:53:19;;;;;;;7.07;2.83;;;;;;;25.81;37.79;98887.97;4972718;28;20051;-87
2023/07/31 08:55:46;;;;;;;3.90;2.60;;;;;;;25.87;36.84;98903.84;4961688;29;20043;-87
2023/07/31 08:58:14;;;;;;;3.20;2.25;;;;;;;25.96;36.38;98906.06;4944571;29;20086;-88
2023/07/31 09:00:43;;;;;;;7.57;2.70;;;;;;;26.02;36.11;98895.97;4961668;28;20077;-88
2023/07/31 09:03:14;;;;;;;5.38;2.55;;;;;;;25.85;37.29;98891.47;4963464;29;20043;-87
2023/07/31 09:05:44;;;;;;;6.35;2.70;;;;;;;25.98;35.67;98898.06;4959751;29;20046;-85
2023/07/31 09:08:13;;;;;;;4.72;2.90;;;;;;;25.98;33.35;98900.84;4959223;29;20068;-94
2023/07/31 09:10:43;;;;;;;4.75;2.47;;;;;;;25.87;34.61;98889.84;4959763;29;20050;-90
2023/07/31 09:13:10;;;;;;;5.93;2.70;;;;;;;25.96;37.22;98890.09;4960345;28;20035;-87
2023/07/31 09:15:38;;;;;;;4.53;2.50;;;;;;;26.09;35.56;98884.63;4960057;29;20054;-86
2023/07/31 09:18:06;;;;;;;11.18;2.67;;;;;;;26.23;36.20;98890.00;4957952;28;20047;-87
2023/07/31 09:20:33;;;;;;;9.25;2.88;;;;;;;26.26;36.24;98891.16;4977449;28;20548;-87
2023/07/31 09:23:10;;;;;;;9.52;2.95;;;;;;;26.42;33.94;98901.63;4963777;29;20047;-85
2023/07/31 09:25:37;;;;;;;5.68;2.65;;;;;;;26.37;35.34;98905.72;4942604;29;20409;-90
2023/07/31 09:28:07;;;;;;;3.85;2.97;;;;;;;26.33;35.36;98907.81;4974382;28;20094;-86
2023/07/31 09:30:51;;;;;;;7.00;2.80;;;;;;;26.37;34.73;98894.53;4958967;28;20050;-86
2023/07/31 09:33:19;;;;;;;4.75;2.80;;;;;;;26.41;35.83;98878.41;4932253;29;20043;-87
2023/07/31 09:35:48;;;;;;;4.93;2.35;;;;;;;26.58;35.61;98901.72;4946239;29;20524;-92
2023/07/31 09:38:15;;;;;;;8.00;2.85;;;;;;;26.41;34.24;98872.03;4950698;28;20134;-88
2023/07/31 09:40:49;;;;;;;6.25;3.10;;;;;;;26.43;32.59;98890.00;4946133;28;20053;-90
2023/07/31 09:43:19;;;;;;;9.23;3.28;;;;;;;26.27;34.92;98880.72;4955333;29;20082;-87
2023/07/31 09:45:46;;;;;;;4.82;3.05;;;;;;;26.49;35.49;98887.53;4957279;29;20049;-85
2023/07/31 09:48:12;;;;;;;4.72;2.70;;;;;;;26.65;36.11;98895.19;4957991;29;20130;-88
2023/07/31 09:50:41;;;;;;;9.73;3.13;;;;;;;26.57;34.74;98877.72;4959105;29;20043;-85
2023/07/31 09:53:08;;;;;;;6.28;3.65;;;;;;;26.53;34.39;98885.44;4941326;29;20123;-86
2023/07/31 09:55:36;;;;;;;7.05;3.13;;;;;;;26.45;35.28;98881.94;4944073;29;20098;-88
2023/07/31 09:58:08;;;;;;;9.68;3.05;;;;;;;26.47;36.72;98884.31;4941326;29;20197;-85
2023/07/31 10:00:35;;;;;;;6.55;2.90;;;;;;;26.65;33.54;98898.00;4959117;29;20050;-89
2023/07/31 10:03:08;;;;;;;8.13;3.15;;;;;;;26.67;34.01;98895.56;4941802;29;20049;-85
2023/07/31 10:05:43;;;;;;;7.68;3.63;;;;;;;26.40;34.01;98871.25;4956371;29;20568;-84
2023/07/31 10:08:11;;;;;;;5.40;2.80;;;;;;;26.54;34.64;98886.22;4956992;29;20125;-85
2023/07/31 10:10:42;;;;;;;5.18;2.85;;;;;;;26.72;37.10;98886.63;4940960;29;20486;-89
2023/07/31 10:13:11;;;;;;;8.60;3.33;;;;;;;26.72;34.35;98875.41;4960010;29;20043;-88
2023/07/31 10:15:37;;;;;;;8.00;3.33;;;;;;;26.75;36.53;98879.38;4944464;29;20421;-87
2023/07/31 10:18:06;;;;;;;3.30;2.88;;;;;;;26.56;33.07;98855.75;4963376;29;20117;-87
2023/07/31 10:20:35;;;;;;;7.32;3.20;;;;;;;26.68;35.07;98867.06;4968395;29;20040;-89
2023/07/31 10:23:01;;;;;;;15.30;3.80;;;;;;;26.77;32.75;98877.72;4950016;29;20043;-85
2023/07/31 10:25:28;;;;;;;;;;;;;;;26.76;32.54;98901.38;4969741;29;20035;-93
2023/07/31 10:27:54;;;;;;;10.55;3.50;;;;;;;26.57;34.75;98874.94;4963627;28;19922;-88
2023/07/31 10:30:27;;;;;;;;;;;;;;;26.92;35.58;98892.22;4962905;29;20050;-87
2023/07/31 10:32:55;;;;;;;3.40;2.60;;;;;;;27.13;34.38;98885.38;4950168;29;19926;-90
2023/07/31 10:35:25;;;;;;;3.67;2.83;;;;;;;26.85;31.75;98881.94;4949630;29;20055;-90
2023/07/31 10:37:52;;;;;;;9.07;3.30;;;;;;;26.81;36.66;98889.63;4960030;29;20070;-85
2023/07/31 10:40:23;;;;;;;3.65;3.17;;;;;;;26.67;34.77;98889.94;4944238;29;20090;-88
2023/07/31 10:42:52;;;;;;;5.40;2.90;;;;;;;26.66;36.71;98888.38;4963728;29;20035;-85
2023/07/31 10:45:41;;;;;;;3.95;2.80;;;;;;;26.64;37.62;98879.59;4943475;29;20116;-86
2023/07/31 10:48:17;;;;;;;9.93;3.58;;;;;;;26.65;35.63;98898.00;4959891;29;20036;-86
2023/07/31 10:50:51;;;;;;;8.00;3.75;;;;;;;26.57;35.63;98882.56;4957810;29;20109;-86
2023/07/31 10:53:35;;;;;;;7.00;3.22;;;;;;;26.41;34.66;98900.84;4958909;29;20054;-87
2023/07/31 10:56:04;;;;;;;7.03;3.53;;;;;;;26.69;37.66;98896.72;4941443;29;20031;-85
2023/07/31 10:58:32;;;;;;;5.47;3.40;;;;;;;26.81;35.77;98889.63;4960085;29;20047;-86
2023/07/31 11:01:00;;;;;;;10.07;3.67;;;;;;;27.08;36.29;98894.25;4964442;29;20043;-85
2023/07/31 11:03:56;;;;;;;5.07;3.28;;;;;;;27.16;36.05;98895.72;4963433;29;20057;-86
2023/07/31 11:06:22;;;;;;;6.32;3.13;;;;;;;26.84;36.76;98877.56;4958372;29;20070;-86
2023/07/31 11:08:51;;;;;;;6.57;3.00;;;;;;;26.90;37.55;98889.84;4959636;29;20054;-87
2023/07/31 11:11:18;;;;;;;4.25;3.17;;;;;;;26.82;37.29;98879.22;4956423;29;20039;-86
2023/07/31 11:13:49;;;;;;;7.25;3.80;;;;;;;26.63;35.92;98887.22;4923908;29;20043;-87
2023/07/31 11:16:16;;;;;;;10.55;3.70;;;;;;;26.56;37.06;98878.19;4955300;29;20050;-87
2023/07/31 11:18:44;;;;;;;5.88;3.58;;;;;;;26.53;37.32;98871.41;4954975;29;20085;-89
2023/07/31 11:21:19;;;;;;;7.97;3.50;;;;;;;26.79;34.99;98861.25;4954510;28;20035;-85
2023/07/31 11:23:50;;;;;;;7.03;3.63;;;;;;;27.22;36.30;98881.94;4973772;28;20051;-87
2023/07/31 11:26:18;;;;;;;6.13;3.97;;;;;;;27.42;36.07;98857.44;4938496;29;20051;-86
2023/07/31 11:28:47;;;;;;;19.65;3.72;;;;;;;27.54;36.00;98873.56;4955214;29;20121;-85
2023/07/31 11:31:13;;;;;;;5.88;3.33;;;;;;;27.44;35.77;98871.00;4932806;29;20409;-87
2023/07/31 11:33:40;;;;;;;6.70;3.33;;;;;;;27.27;36.13;98868.19;4959035;28;20524;-87